createdAt,value
2022-09-03T00:00:03.117Z,12.70
2022-09-03T00:01:03.117Z,12.70
2022-09-03T00:02:03.098Z,12.70
2022-09-03T00:03:03.235Z,12.70
2022-09-03T00:04:03.153Z,12.60
2022-09-03T00:05:03.099Z,12.60
2022-09-03T00:06:03.136Z,12.60
2022-09-03T00:07:03.253Z,12.60
2022-09-03T00:08:03.249Z,12.60
2022-09-03T00:09:03.155Z,12.60
2022-09-03T00:10:03.408Z,12.60
2022-09-03T00:11:03.524Z,12.60
2022-09-03T00:12:03.506Z,12.60
2022-09-03T00:13:03.628Z,12.60
2022-09-03T00:14:03.569Z,12.60
2022-09-03T00:15:02.682Z,12.60
2022-09-03T00:16:02.695Z,12.60
2022-09-03T00:17:02.765Z,12.60
2022-09-03T00:18:02.827Z,12.60
2022-09-03T00:19:02.811Z,12.50
2022-09-03T00:20:02.790Z,12.50
2022-09-03T00:21:02.801Z,12.50
2022-09-03T00:22:02.882Z,12.50
2022-09-03T00:23:02.882Z,12.50
2022-09-03T00:24:02.985Z,12.50
2022-09-03T00:25:03.065Z,12.50
2022-09-03T00:26:03.070Z,12.50
2022-09-03T00:27:03.045Z,12.50
2022-09-03T00:28:03.010Z,12.50
2022-09-03T00:29:03.070Z,12.50
2022-09-03T00:30:03.073Z,12.50
2022-09-03T00:31:03.144Z,12.50
2022-09-03T00:32:03.134Z,12.50
2022-09-03T00:33:03.041Z,12.50
2022-09-03T00:34:03.182Z,12.50
2022-09-03T00:35:03.153Z,12.50
2022-09-03T00:36:02.642Z,12.50
2022-09-03T00:37:02.635Z,12.50
2022-09-03T00:38:02.808Z,12.50
2022-09-03T00:39:02.877Z,12.50
2022-09-03T00:40:02.912Z,12.50
2022-09-03T00:41:03.071Z,12.50
2022-09-03T00:42:03.190Z,12.50
2022-09-03T00:43:03.227Z,12.50
2022-09-03T00:44:03.337Z,12.50
2022-09-03T00:45:03.426Z,12.50
2022-09-03T00:46:03.464Z,12.50
2022-09-03T00:47:03.423Z,12.50
2022-09-03T00:48:03.467Z,12.50
2022-09-03T00:49:03.416Z,12.50
2022-09-03T00:50:03.444Z,12.40
2022-09-03T00:51:03.450Z,12.40
2022-09-03T00:52:03.507Z,12.40
2022-09-03T00:53:03.363Z,12.40
2022-09-03T00:54:03.435Z,12.40
2022-09-03T00:55:03.395Z,12.40
2022-09-03T00:56:03.571Z,12.40
2022-09-03T00:57:03.563Z,12.40
2022-09-03T00:58:03.628Z,12.40
2022-09-03T00:59:02.608Z,12.40
2022-09-03T01:00:02.687Z,12.40
2022-09-03T01:01:02.732Z,12.40
2022-09-03T01:02:02.912Z,12.40
2022-09-03T01:03:02.762Z,12.30
2022-09-03T01:04:02.833Z,12.30
2022-09-03T01:05:02.756Z,12.30
2022-09-03T01:06:02.830Z,12.30
2022-09-03T01:07:02.888Z,12.30
2022-09-03T01:08:02.910Z,12.30
2022-09-03T01:09:02.849Z,12.30
2022-09-03T01:10:03.016Z,12.30
2022-09-03T01:11:02.967Z,12.30
2022-09-03T01:12:02.998Z,12.30
2022-09-03T01:13:03.389Z,12.30
2022-09-03T01:14:03.473Z,12.30
2022-09-03T01:15:03.403Z,12.20
2022-09-03T01:16:03.593Z,12.20
2022-09-03T01:17:03.649Z,12.20
2022-09-03T01:18:02.654Z,12.20
2022-09-03T01:19:03.037Z,12.20
2022-09-03T01:20:02.985Z,12.20
2022-09-03T01:21:03.033Z,12.20
2022-09-03T01:22:03.076Z,12.20
2022-09-03T01:23:03.139Z,12.20
2022-09-03T01:24:03.136Z,12.20
2022-09-03T01:25:03.128Z,12.20
2022-09-03T01:26:03.123Z,12.20
2022-09-03T01:27:03.173Z,12.20
2022-09-03T01:28:03.177Z,12.20
2022-09-03T01:29:03.253Z,12.10
2022-09-03T01:30:03.381Z,12.10
2022-09-03T01:31:03.541Z,12.10
2022-09-03T01:32:03.497Z,12.10
2022-09-03T01:33:03.504Z,12.10
2022-09-03T01:34:03.512Z,12.10
2022-09-03T01:35:03.529Z,12.10
2022-09-03T01:36:03.551Z,12.10
2022-09-03T01:37:02.668Z,12.10
2022-09-03T01:38:02.849Z,12.10
2022-09-03T01:39:02.835Z,12.10
2022-09-03T01:40:02.788Z,12.10
2022-09-03T01:41:02.843Z,12.10
2022-09-03T01:42:02.928Z,12.10
2022-09-03T01:43:02.958Z,12.10
2022-09-03T01:44:03.115Z,12.10
2022-09-03T01:45:03.089Z,12.10
2022-09-03T01:46:03.105Z,12.10
2022-09-03T01:47:03.204Z,12.10
2022-09-03T01:48:03.221Z,12.00
2022-09-03T01:49:03.206Z,12.00
2022-09-03T01:50:03.227Z,12.00
2022-09-03T01:51:03.332Z,12.00
2022-09-03T01:52:03.485Z,12.00
2022-09-03T01:53:03.460Z,12.00
2022-09-03T01:54:03.626Z,12.00
2022-09-03T01:55:02.685Z,12.00
2022-09-03T01:56:02.662Z,11.90
2022-09-03T01:57:02.699Z,11.90
2022-09-03T01:58:02.632Z,11.90
2022-09-03T01:59:02.774Z,11.90
2022-09-03T02:00:02.936Z,11.90
2022-09-03T02:01:02.940Z,11.90
2022-09-03T02:02:02.953Z,11.90
2022-09-03T02:03:03.002Z,11.90
2022-09-03T02:04:02.984Z,11.90
2022-09-03T02:05:02.956Z,11.90
2022-09-03T02:06:02.969Z,11.90
2022-09-03T02:07:02.901Z,11.90
2022-09-03T02:08:02.957Z,11.90
2022-09-03T02:09:02.947Z,11.90
2022-09-03T02:10:02.987Z,11.90
2022-09-03T02:11:03.234Z,11.90
2022-09-03T02:12:03.234Z,11.90
2022-09-03T02:13:03.230Z,11.90
2022-09-03T02:14:03.197Z,11.90
2022-09-03T02:15:03.285Z,11.90
2022-09-03T02:16:03.472Z,11.90
2022-09-03T02:17:03.527Z,11.90
2022-09-03T02:18:03.561Z,11.90
2022-09-03T02:19:03.616Z,11.90
2022-09-03T02:20:03.527Z,11.80
2022-09-03T02:21:02.684Z,11.80
2022-09-03T02:22:02.601Z,11.80
2022-09-03T02:23:02.691Z,11.80
2022-09-03T02:24:02.661Z,11.80
2022-09-03T02:25:02.721Z,11.80
2022-09-03T02:26:03.492Z,11.80
2022-09-03T02:27:03.474Z,11.80
2022-09-03T02:28:03.568Z,11.80
2022-09-03T02:29:02.664Z,11.80
2022-09-03T02:30:02.669Z,11.70
2022-09-03T02:31:02.793Z,11.70
2022-09-03T02:32:03.439Z,11.70
2022-09-03T02:33:03.338Z,11.70
2022-09-03T02:34:03.451Z,11.70
2022-09-03T02:35:03.476Z,11.70
2022-09-03T02:36:03.438Z,11.70
2022-09-03T02:37:03.521Z,11.70
2022-09-03T02:38:03.499Z,11.70
2022-09-03T02:39:03.538Z,11.70
2022-09-03T02:40:02.731Z,11.70
2022-09-03T02:41:02.751Z,11.70
2022-09-03T02:42:02.737Z,11.70
2022-09-03T02:43:02.776Z,11.70
2022-09-03T02:44:02.881Z,11.70
2022-09-03T02:45:02.857Z,11.60
2022-09-03T02:46:02.859Z,11.60
2022-09-03T02:47:02.782Z,11.70
2022-09-03T02:48:02.851Z,11.60
2022-09-03T02:49:02.866Z,11.60
2022-09-03T02:50:02.737Z,11.60
2022-09-03T02:51:02.878Z,11.60
2022-09-03T02:52:02.889Z,11.60
2022-09-03T02:53:02.870Z,11.60
2022-09-03T02:54:02.806Z,11.60
2022-09-03T02:55:02.905Z,11.60
2022-09-03T02:56:02.870Z,11.60
2022-09-03T02:57:02.816Z,11.60
2022-09-03T02:58:02.923Z,11.60
2022-09-03T02:59:02.891Z,11.60
2022-09-03T03:00:02.985Z,11.60
2022-09-03T03:01:02.979Z,11.60
2022-09-03T03:02:03.063Z,11.60
2022-09-03T03:03:03.033Z,11.60
2022-09-03T03:04:03.122Z,11.60
2022-09-03T03:05:03.184Z,11.60
2022-09-03T03:06:03.169Z,11.60
2022-09-03T03:07:03.245Z,11.60
2022-09-03T03:08:03.204Z,11.60
2022-09-03T03:09:03.320Z,11.60
2022-09-03T03:10:03.393Z,11.60
2022-09-03T03:11:03.374Z,11.60
2022-09-03T03:12:03.362Z,11.60
2022-09-03T03:13:03.439Z,11.60
2022-09-03T03:14:03.477Z,11.60
2022-09-03T03:15:03.443Z,11.60
2022-09-03T03:16:03.394Z,11.60
2022-09-03T03:17:03.562Z,11.60
2022-09-03T03:18:03.636Z,11.60
2022-09-03T03:19:02.606Z,11.60
2022-09-03T03:20:02.818Z,11.60
2022-09-03T03:21:02.718Z,11.60
2022-09-03T03:22:02.829Z,11.60
2022-09-03T03:23:02.958Z,11.60
2022-09-03T03:24:02.884Z,11.60
2022-09-03T03:25:02.939Z,11.60
2022-09-03T03:26:03.025Z,11.60
2022-09-03T03:27:02.970Z,11.60
2022-09-03T03:28:03.041Z,11.60
2022-09-03T03:29:03.133Z,11.60
2022-09-03T03:30:03.151Z,11.60
2022-09-03T03:31:03.176Z,11.60
2022-09-03T03:32:03.164Z,11.60
2022-09-03T03:33:03.220Z,11.60
2022-09-03T03:34:03.239Z,11.60
2022-09-03T03:35:03.211Z,11.60
2022-09-03T03:36:03.279Z,11.60
2022-09-03T03:37:03.327Z,11.60
2022-09-03T03:38:03.379Z,11.60
2022-09-03T03:39:03.508Z,11.60
2022-09-03T03:40:03.704Z,11.60
2022-09-03T03:41:03.583Z,11.60
2022-09-03T03:42:02.725Z,11.60
2022-09-03T03:43:02.678Z,11.60
2022-09-03T03:44:02.858Z,11.60
2022-09-03T03:45:02.950Z,11.60
2022-09-03T03:46:03.121Z,11.60
2022-09-03T03:47:03.085Z,11.60
2022-09-03T03:48:03.200Z,11.60
2022-09-03T03:49:03.255Z,11.50
2022-09-03T03:50:03.238Z,11.60
2022-09-03T03:51:03.356Z,11.60
2022-09-03T03:52:03.460Z,11.60
2022-09-03T03:53:03.582Z,11.60
2022-09-03T03:54:05.380Z,11.60
2022-09-03T03:55:02.713Z,11.60
2022-09-03T03:56:02.643Z,11.60
2022-09-03T03:57:02.679Z,11.60
2022-09-03T03:58:02.758Z,11.60
2022-09-03T03:59:02.759Z,11.60
2022-09-03T04:00:02.842Z,11.50
2022-09-03T04:01:03.057Z,11.50
2022-09-03T04:02:02.984Z,11.50
2022-09-03T04:03:02.982Z,11.50
2022-09-03T04:04:02.905Z,11.50
2022-09-03T04:05:02.947Z,11.60
2022-09-03T04:06:02.974Z,11.60
2022-09-03T04:07:03.101Z,11.50
2022-09-03T04:08:03.130Z,11.60
2022-09-03T04:09:03.016Z,11.60
2022-09-03T04:10:03.116Z,11.60
2022-09-03T04:11:03.182Z,11.60
2022-09-03T04:12:03.256Z,11.60
2022-09-03T04:13:03.395Z,11.60
2022-09-03T04:14:03.487Z,11.60
2022-09-03T04:15:03.478Z,11.60
2022-09-03T04:16:03.512Z,11.60
2022-09-03T04:17:03.678Z,11.60
2022-09-03T04:18:03.565Z,11.60
2022-09-03T04:19:02.786Z,11.60
2022-09-03T04:20:02.842Z,11.60
2022-09-03T04:21:02.828Z,11.60
2022-09-03T04:22:02.946Z,11.60
2022-09-03T04:23:02.878Z,11.60
2022-09-03T04:24:02.987Z,11.60
2022-09-03T04:25:03.692Z,11.60
2022-09-03T04:26:02.996Z,11.60
2022-09-03T04:27:02.907Z,11.60
2022-09-03T04:28:03.043Z,11.60
2022-09-03T04:29:03.073Z,11.60
2022-09-03T04:30:03.209Z,11.60
2022-09-03T04:31:03.295Z,11.60
2022-09-03T04:32:03.397Z,11.60
2022-09-03T04:33:03.437Z,11.60
2022-09-03T04:34:03.403Z,11.60
2022-09-03T04:35:03.399Z,11.60
2022-09-03T04:36:03.359Z,11.60
2022-09-03T04:37:03.459Z,11.60
2022-09-03T04:38:03.438Z,11.60
2022-09-03T04:39:03.479Z,11.60
2022-09-03T04:40:03.457Z,11.60
2022-09-03T04:41:03.414Z,11.60
2022-09-03T04:42:03.603Z,11.60
2022-09-03T04:43:02.661Z,11.60
2022-09-03T04:44:02.741Z,11.60
2022-09-03T04:45:02.721Z,11.60
2022-09-03T04:46:02.916Z,11.60
2022-09-03T04:47:02.877Z,11.60
2022-09-03T04:48:02.794Z,11.60
2022-09-03T04:49:02.900Z,11.60
2022-09-03T04:50:02.917Z,11.60
2022-09-03T04:51:03.018Z,11.60
2022-09-03T04:52:02.981Z,11.60
2022-09-03T04:53:07.213Z,11.60
2022-09-03T04:54:02.977Z,11.60
2022-09-03T04:55:02.902Z,11.60
2022-09-03T04:56:03.005Z,11.60
2022-09-03T04:57:03.088Z,11.60
2022-09-03T04:58:03.117Z,11.60
2022-09-03T04:59:03.021Z,11.60
2022-09-03T05:00:03.063Z,11.60
2022-09-03T05:01:03.198Z,11.60
2022-09-03T05:02:03.196Z,11.60
2022-09-03T05:03:03.363Z,11.60
2022-09-03T05:04:03.297Z,11.60
2022-09-03T05:05:03.289Z,11.60
2022-09-03T05:06:03.378Z,11.60
2022-09-03T05:07:03.401Z,11.70
2022-09-03T05:08:03.412Z,11.70
2022-09-03T05:09:03.536Z,11.70
2022-09-03T05:10:02.664Z,11.70
2022-09-03T05:11:02.680Z,11.70
2022-09-03T05:12:02.694Z,11.70
2022-09-03T05:13:02.843Z,11.80
2022-09-03T05:14:02.977Z,11.80
2022-09-03T05:15:03.009Z,11.80
2022-09-03T05:16:03.105Z,11.90
2022-09-03T05:17:03.172Z,11.90
2022-09-03T05:18:03.132Z,12.00
2022-09-03T05:19:02.867Z,12.10
2022-09-03T05:20:02.999Z,12.20
2022-09-03T05:21:03.082Z,12.30
2022-09-03T05:22:03.060Z,12.40
2022-09-03T05:23:03.044Z,12.60
2022-09-03T05:24:03.229Z,12.70
2022-09-03T05:25:03.263Z,12.90
2022-09-03T05:26:03.290Z,13.00
2022-09-03T05:27:03.401Z,13.20
2022-09-03T05:28:03.565Z,13.40
2022-09-03T05:29:03.552Z,13.50
2022-09-03T05:30:03.527Z,13.70
2022-09-03T05:31:03.612Z,13.90
2022-09-03T05:32:02.680Z,14.00
2022-09-03T05:33:02.672Z,14.20
2022-09-03T05:34:02.909Z,14.30
2022-09-03T05:35:02.816Z,14.50
2022-09-03T05:36:02.778Z,14.60
2022-09-03T05:37:02.854Z,14.80
2022-09-03T05:38:03.198Z,14.90
2022-09-03T05:39:03.233Z,15.10
2022-09-03T05:40:03.386Z,15.20
2022-09-03T05:41:03.447Z,15.40
2022-09-03T05:42:03.426Z,15.50
2022-09-03T05:43:06.573Z,15.60
2022-09-03T05:44:02.834Z,15.70
2022-09-03T05:45:02.846Z,15.80
2022-09-03T05:46:03.047Z,15.90
2022-09-03T05:47:02.929Z,15.90
2022-09-03T05:48:02.933Z,15.90
2022-09-03T05:49:03.076Z,15.80
2022-09-03T05:50:03.022Z,15.80
2022-09-03T05:51:03.106Z,15.80
2022-09-03T05:52:03.217Z,15.70
2022-09-03T05:53:03.307Z,15.60
2022-09-03T05:54:03.394Z,15.60
2022-09-03T05:55:03.422Z,15.60
2022-09-03T05:56:03.419Z,15.60
2022-09-03T05:57:03.487Z,15.60
2022-09-03T05:58:03.578Z,15.60
2022-09-03T05:59:03.550Z,15.60
2022-09-03T06:00:03.515Z,15.60
2022-09-03T06:01:02.618Z,15.60
2022-09-03T06:02:03.094Z,15.60
2022-09-03T06:03:03.127Z,15.60
2022-09-03T06:04:03.151Z,15.60
2022-09-03T06:05:03.229Z,15.50
2022-09-03T06:06:03.233Z,15.50
2022-09-03T06:07:03.144Z,15.50
2022-09-03T06:08:03.177Z,15.40
2022-09-03T06:09:03.255Z,15.40
2022-09-03T06:10:03.209Z,15.40
2022-09-03T06:11:03.216Z,15.30
2022-09-03T06:12:03.778Z,15.30
2022-09-03T06:13:03.384Z,15.20
2022-09-03T06:14:03.434Z,15.20
2022-09-03T06:15:03.578Z,15.20
2022-09-03T06:16:03.560Z,15.20
2022-09-03T06:17:03.716Z,15.10
2022-09-03T06:18:02.626Z,15.10
2022-09-03T06:19:02.775Z,15.10
2022-09-03T06:20:02.768Z,15.10
2022-09-03T06:21:02.899Z,15.10
2022-09-03T06:22:02.969Z,15.10
2022-09-03T06:23:03.021Z,15.10
2022-09-03T06:24:02.977Z,15.10
2022-09-03T06:25:03.117Z,15.10
2022-09-03T06:26:05.221Z,15.10
2022-09-03T06:27:03.096Z,15.20
2022-09-03T06:28:03.306Z,15.30
2022-09-03T06:29:03.290Z,15.40
2022-09-03T06:30:03.248Z,15.50
2022-09-03T06:31:03.280Z,15.60
2022-09-03T06:32:03.417Z,15.70
2022-09-03T06:33:03.333Z,15.70
2022-09-03T06:34:04.227Z,15.80
2022-09-03T06:35:03.472Z,15.90
2022-09-03T06:36:04.542Z,15.90
2022-09-03T06:37:03.446Z,16.00
2022-09-03T06:38:03.458Z,16.10
2022-09-03T06:39:03.520Z,16.20
2022-09-03T06:40:03.605Z,16.30
2022-09-03T06:41:03.602Z,16.30
2022-09-03T06:42:03.575Z,16.30
2022-09-03T06:43:02.724Z,16.40
2022-09-03T06:44:02.863Z,16.40
2022-09-03T06:45:02.976Z,16.40
2022-09-03T06:46:03.173Z,16.40
2022-09-03T06:47:03.084Z,16.30
2022-09-03T06:48:03.228Z,16.30
2022-09-03T06:49:03.119Z,16.30
2022-09-03T06:50:03.284Z,16.30
2022-09-03T06:51:03.436Z,16.30
2022-09-03T06:52:03.465Z,16.30
2022-09-03T06:53:03.404Z,16.30
2022-09-03T06:54:03.489Z,16.30
2022-09-03T06:55:03.406Z,16.30
2022-09-03T06:56:03.426Z,16.30
2022-09-03T06:57:03.514Z,16.30
2022-09-03T06:58:03.578Z,16.40
2022-09-03T06:59:02.681Z,16.40
2022-09-03T07:00:02.749Z,16.40
2022-09-03T07:01:02.873Z,16.50
2022-09-03T07:02:02.991Z,16.50
2022-09-03T07:03:02.804Z,16.60
2022-09-03T07:04:03.441Z,16.60
2022-09-03T07:05:02.954Z,16.60
2022-09-03T07:06:02.884Z,16.70
2022-09-03T07:07:02.916Z,16.70
2022-09-03T07:08:02.960Z,16.80
2022-09-03T07:09:02.996Z,16.90
2022-09-03T07:10:03.004Z,17.00
2022-09-03T07:11:03.018Z,17.10
2022-09-03T07:12:03.064Z,17.20
2022-09-03T07:13:03.001Z,17.20
2022-09-03T07:14:03.053Z,17.30
2022-09-03T07:15:02.987Z,17.40
2022-09-03T07:16:03.155Z,17.50
2022-09-03T07:17:03.176Z,17.50
2022-09-03T07:18:03.084Z,17.60
2022-09-03T07:19:02.611Z,17.70
2022-09-03T07:20:02.807Z,17.80
2022-09-03T07:21:02.744Z,17.80
2022-09-03T07:22:02.801Z,17.90
2022-09-03T07:23:02.772Z,17.90
2022-09-03T07:24:03.386Z,18.00
2022-09-03T07:25:03.475Z,18.00
2022-09-03T07:26:03.463Z,18.10
2022-09-03T07:27:03.582Z,18.10
2022-09-03T07:28:03.617Z,18.20
2022-09-03T07:29:03.558Z,18.20
2022-09-03T07:30:02.741Z,18.30
2022-09-03T07:31:02.751Z,18.40
2022-09-03T07:32:02.882Z,18.50
2022-09-03T07:33:02.754Z,18.60
2022-09-03T07:34:02.712Z,18.60
2022-09-03T07:35:02.821Z,18.70
2022-09-03T07:36:02.926Z,18.80
2022-09-03T07:37:03.007Z,18.90
2022-09-03T07:38:03.205Z,19.10
2022-09-03T07:39:03.306Z,19.20
2022-09-03T07:40:03.460Z,19.30
2022-09-03T07:41:03.384Z,19.40
2022-09-03T07:42:03.494Z,19.50
2022-09-03T07:43:03.543Z,19.60
2022-09-03T07:44:03.622Z,19.70
2022-09-03T07:45:02.640Z,19.80
2022-09-03T07:46:02.652Z,19.90
2022-09-03T07:47:02.759Z,20.00
2022-09-03T07:48:02.790Z,20.00
2022-09-03T07:49:02.830Z,20.10
2022-09-03T07:50:02.909Z,20.10
2022-09-03T07:51:03.076Z,20.10
2022-09-03T07:52:03.039Z,20.10
2022-09-03T07:53:03.039Z,20.10
2022-09-03T07:54:03.016Z,20.10
2022-09-03T07:55:03.113Z,20.10
2022-09-03T07:56:03.604Z,20.10
2022-09-03T07:57:02.625Z,20.10
2022-09-03T07:58:02.731Z,20.10
2022-09-03T07:59:02.877Z,20.10
2022-09-03T08:00:03.328Z,20.10
2022-09-03T08:01:03.426Z,20.10
2022-09-03T08:02:03.482Z,20.10
2022-09-03T08:03:03.563Z,20.20
2022-09-03T08:04:03.586Z,20.20
2022-09-03T08:05:03.603Z,20.20
2022-09-03T08:06:03.527Z,20.20
2022-09-03T08:07:02.728Z,20.20
2022-09-03T08:08:02.653Z,20.30
2022-09-03T08:09:05.168Z,20.30
2022-09-03T08:10:02.712Z,20.40
2022-09-03T08:11:02.661Z,20.40
2022-09-03T08:12:02.899Z,20.40
2022-09-03T08:13:02.814Z,20.40
2022-09-03T08:14:02.803Z,20.40
2022-09-03T08:15:02.883Z,20.40
2022-09-03T08:16:02.972Z,20.50
2022-09-03T08:17:02.972Z,20.50
2022-09-03T08:18:03.607Z,20.50
2022-09-03T08:19:02.946Z,20.50
2022-09-03T08:20:03.041Z,20.50
2022-09-03T08:21:03.088Z,20.50
2022-09-03T08:22:03.047Z,20.50
2022-09-03T08:23:03.165Z,20.50
2022-09-03T08:24:03.209Z,20.60
2022-09-03T08:25:03.581Z,20.60
2022-09-03T08:26:03.546Z,20.60
2022-09-03T08:27:02.609Z,20.60
2022-09-03T08:28:03.289Z,20.60
2022-09-03T08:29:03.374Z,20.70
2022-09-03T08:30:03.467Z,20.70
2022-09-03T08:31:03.531Z,20.70
2022-09-03T08:32:05.316Z,20.70
2022-09-03T08:33:03.523Z,20.70
2022-09-03T08:34:03.606Z,20.70
2022-09-03T08:35:03.594Z,20.70
2022-09-03T08:36:03.602Z,20.80
2022-09-03T08:37:02.690Z,20.80
2022-09-03T08:38:02.677Z,20.80
2022-09-03T08:39:02.696Z,20.80
2022-09-03T08:40:02.937Z,20.80
2022-09-03T08:41:02.795Z,20.80
2022-09-03T08:42:02.909Z,20.80
2022-09-03T08:43:06.746Z,20.80
2022-09-03T08:44:03.053Z,20.80
2022-09-03T08:45:03.405Z,20.80
2022-09-03T08:46:03.496Z,20.80
2022-09-03T08:47:02.702Z,20.80
2022-09-03T08:48:02.649Z,20.80
2022-09-03T08:49:02.729Z,20.90
2022-09-03T08:50:02.767Z,20.90
2022-09-03T08:51:02.836Z,20.90
2022-09-03T08:52:02.864Z,20.90
2022-09-03T08:53:03.419Z,21.00
2022-09-03T08:54:03.502Z,21.00
2022-09-03T08:55:03.556Z,21.00
2022-09-03T08:56:03.468Z,21.00
2022-09-03T08:57:03.548Z,21.00
2022-09-03T08:58:02.693Z,21.00
2022-09-03T08:59:02.743Z,21.00
2022-09-03T09:00:02.702Z,21.00
2022-09-03T09:01:02.885Z,20.90
2022-09-03T09:02:02.951Z,20.90
2022-09-03T09:03:02.847Z,21.00
2022-09-03T09:04:02.829Z,21.00
2022-09-03T09:05:02.943Z,21.00
2022-09-03T09:06:03.075Z,21.00
2022-09-03T09:07:03.213Z,21.00
2022-09-03T09:08:03.300Z,21.00
2022-09-03T09:09:03.332Z,21.00
2022-09-03T09:10:03.383Z,21.00
2022-09-03T09:11:03.493Z,21.00
2022-09-03T09:12:03.529Z,21.00
2022-09-03T09:13:03.518Z,21.00
2022-09-03T09:14:03.638Z,21.00
2022-09-03T09:15:02.677Z,21.10
2022-09-03T09:16:02.715Z,21.10
2022-09-03T09:17:03.523Z,21.10
2022-09-03T09:18:03.634Z,21.20
2022-09-03T09:19:03.602Z,21.20
2022-09-03T09:20:02.599Z,21.20
2022-09-03T09:21:02.776Z,21.30
2022-09-03T09:22:02.911Z,21.30
2022-09-03T09:23:03.012Z,21.30
2022-09-03T09:24:03.035Z,21.30
2022-09-03T09:25:03.036Z,21.30
2022-09-03T09:26:03.043Z,21.30
2022-09-03T09:27:03.037Z,21.30
2022-09-03T09:28:03.109Z,21.30
2022-09-03T09:29:03.148Z,21.30
2022-09-03T09:30:03.133Z,21.40
2022-09-03T09:31:03.256Z,21.40
2022-09-03T09:32:03.069Z,21.40
2022-09-03T09:33:03.142Z,21.50
2022-09-03T09:34:03.100Z,21.50
2022-09-03T09:35:03.063Z,21.50
2022-09-03T09:36:03.005Z,21.50
2022-09-03T09:37:03.341Z,21.50
2022-09-03T09:38:03.466Z,21.60
2022-09-03T09:39:03.411Z,21.60
2022-09-03T09:40:03.567Z,21.60
2022-09-03T09:41:03.415Z,21.60
2022-09-03T09:42:03.371Z,21.60
2022-09-03T09:43:03.515Z,21.60
2022-09-03T09:44:03.565Z,21.60
2022-09-03T09:45:03.606Z,21.70
2022-09-03T09:46:02.779Z,21.70
2022-09-03T09:47:02.670Z,21.70
2022-09-03T09:48:02.889Z,21.70
2022-09-03T09:49:02.840Z,21.70
2022-09-03T09:50:02.843Z,21.70
2022-09-03T09:51:02.773Z,21.70
2022-09-03T09:52:02.883Z,21.70
2022-09-03T09:53:03.032Z,21.70
2022-09-03T09:54:03.018Z,21.70
2022-09-03T09:55:03.036Z,21.70
2022-09-03T09:56:03.090Z,21.70
2022-09-03T09:57:03.075Z,21.80
2022-09-03T09:58:03.116Z,21.80
2022-09-03T09:59:03.242Z,21.90
2022-09-03T10:00:03.344Z,21.90
2022-09-03T10:01:03.337Z,21.90
2022-09-03T10:02:03.417Z,21.90
2022-09-03T10:03:03.579Z,22.00
2022-09-03T10:04:03.572Z,22.00
2022-09-03T10:05:03.547Z,22.00
2022-09-03T10:06:03.565Z,22.00
2022-09-03T10:07:03.560Z,22.00
2022-09-03T10:08:03.553Z,22.00
2022-09-03T10:09:02.663Z,22.00
2022-09-03T10:10:02.795Z,22.00
2022-09-03T10:11:02.793Z,22.00
2022-09-03T10:12:02.853Z,22.00
2022-09-03T10:13:03.022Z,22.00
2022-09-03T10:14:03.110Z,21.90
2022-09-03T10:15:03.134Z,21.90
2022-09-03T10:16:03.128Z,21.90
2022-09-03T10:17:03.126Z,22.00
2022-09-03T10:18:03.126Z,21.90
2022-09-03T10:19:03.295Z,21.90
2022-09-03T10:20:03.192Z,22.00
2022-09-03T10:21:03.274Z,22.00
2022-09-03T10:22:03.262Z,22.00
2022-09-03T10:23:03.327Z,22.00
2022-09-03T10:24:07.336Z,22.00
2022-09-03T10:25:03.546Z,22.00
2022-09-03T10:26:03.653Z,22.00
2022-09-03T10:27:03.583Z,22.00
2022-09-03T10:28:02.710Z,22.00
2022-09-03T10:29:02.721Z,22.00
2022-09-03T10:30:02.762Z,22.00
2022-09-03T10:31:02.782Z,22.00
2022-09-03T10:32:02.842Z,22.00
2022-09-03T10:33:02.921Z,22.00
2022-09-03T10:34:03.010Z,22.00
2022-09-03T10:35:03.187Z,22.00
2022-09-03T10:36:03.147Z,22.10
2022-09-03T10:37:03.230Z,22.10
2022-09-03T10:38:03.280Z,22.10
2022-09-03T10:39:03.328Z,22.10
2022-09-03T10:40:03.507Z,22.20
2022-09-03T10:41:03.642Z,22.20
2022-09-03T10:42:02.629Z,22.20
2022-09-03T10:43:02.648Z,22.20
2022-09-03T10:44:02.801Z,22.20
2022-09-03T10:45:02.765Z,22.20
2022-09-03T10:46:02.809Z,22.30
2022-09-03T10:47:02.765Z,22.30
2022-09-03T10:48:02.673Z,22.30
2022-09-03T10:49:02.806Z,22.30
2022-09-03T10:50:02.844Z,22.30
2022-09-03T10:51:02.773Z,22.40
2022-09-03T10:52:02.851Z,22.40
2022-09-03T10:53:02.917Z,22.40
2022-09-03T10:54:02.973Z,22.50
2022-09-03T10:55:02.901Z,22.50
2022-09-03T10:56:02.961Z,22.50
2022-09-03T10:57:03.048Z,22.50
2022-09-03T10:58:03.088Z,22.50
2022-09-03T10:59:03.086Z,22.60
2022-09-03T11:00:03.060Z,22.60
2022-09-03T11:01:03.064Z,22.60
2022-09-03T11:02:03.063Z,22.60
2022-09-03T11:03:03.260Z,22.60
2022-09-03T11:04:03.145Z,22.60
2022-09-03T11:05:03.136Z,22.60
2022-09-03T11:06:03.146Z,22.60
2022-09-03T11:07:04.204Z,22.60
2022-09-03T11:08:03.140Z,22.60
2022-09-03T11:09:06.427Z,22.60
2022-09-03T11:10:03.255Z,22.60
2022-09-03T11:11:03.287Z,22.60
2022-09-03T11:12:03.221Z,22.60
2022-09-03T11:13:03.370Z,22.60
2022-09-03T11:14:03.321Z,22.60
2022-09-03T11:15:03.440Z,22.60
2022-09-03T11:16:03.493Z,22.60
2022-09-03T11:17:03.535Z,22.60
2022-09-03T11:18:03.553Z,22.70
2022-09-03T11:19:03.465Z,22.70
2022-09-03T11:20:03.502Z,22.70
2022-09-03T11:21:03.515Z,22.70
2022-09-03T11:22:03.673Z,22.70
2022-09-03T11:23:03.575Z,22.70
2022-09-03T11:24:03.537Z,22.70
2022-09-03T11:25:02.651Z,22.60
2022-09-03T11:26:02.794Z,22.60
2022-09-03T11:27:02.744Z,22.60
2022-09-03T11:28:02.788Z,22.60
2022-09-03T11:29:02.911Z,22.70
2022-09-03T11:30:03.044Z,22.70
2022-09-03T11:31:03.216Z,22.70
2022-09-03T11:32:03.033Z,22.70
2022-09-03T11:33:02.989Z,22.70
2022-09-03T11:34:03.020Z,22.80
2022-09-03T11:35:03.017Z,22.80
2022-09-03T11:36:03.144Z,22.80
2022-09-03T11:37:03.224Z,22.80
2022-09-03T11:38:03.246Z,22.80
2022-09-03T11:39:03.286Z,22.80
2022-09-03T11:40:03.436Z,22.90
2022-09-03T11:41:03.322Z,22.90
2022-09-03T11:42:03.462Z,22.90
2022-09-03T11:43:03.450Z,22.90
2022-09-03T11:44:04.622Z,23.00
2022-09-03T11:45:03.404Z,23.00
2022-09-03T11:46:03.577Z,23.00
2022-09-03T11:47:03.496Z,23.00
2022-09-03T11:48:03.632Z,23.10
2022-09-03T11:49:02.683Z,23.10
2022-09-03T11:50:02.657Z,23.10
2022-09-03T11:51:02.807Z,23.10
2022-09-03T11:52:02.904Z,23.10
2022-09-03T11:53:02.960Z,23.10
2022-09-03T11:54:02.998Z,23.10
2022-09-03T11:55:02.912Z,23.20
2022-09-03T11:56:03.026Z,23.20
2022-09-03T11:57:03.054Z,23.20
2022-09-03T11:58:03.035Z,23.20
2022-09-03T11:59:03.162Z,23.20
2022-09-03T12:00:03.256Z,23.20
2022-09-03T12:01:03.399Z,23.30
2022-09-03T12:02:03.563Z,23.30
2022-09-03T12:03:03.721Z,23.30
2022-09-03T12:04:03.659Z,23.30
2022-09-03T12:05:03.655Z,23.30
2022-09-03T12:06:03.623Z,23.30
2022-09-03T12:07:02.686Z,23.30
2022-09-03T12:08:06.826Z,23.30
2022-09-03T12:09:02.754Z,23.30
2022-09-03T12:10:02.786Z,23.30
2022-09-03T12:11:02.996Z,23.30
2022-09-03T12:12:03.004Z,23.30
2022-09-03T12:13:03.042Z,23.30
2022-09-03T12:14:03.131Z,23.30
2022-09-03T12:15:03.276Z,23.40
2022-09-03T12:16:03.383Z,23.40
2022-09-03T12:17:03.473Z,23.40
2022-09-03T12:18:03.613Z,23.50
2022-09-03T12:19:02.701Z,23.50
2022-09-03T12:20:02.652Z,23.50
2022-09-03T12:21:03.619Z,23.60
2022-09-03T12:22:03.539Z,23.60
2022-09-03T12:23:03.569Z,23.60
2022-09-03T12:24:02.693Z,23.60
2022-09-03T12:25:02.638Z,23.60
2022-09-03T12:26:02.652Z,23.60
2022-09-03T12:27:02.728Z,23.60
2022-09-03T12:28:02.733Z,23.60
2022-09-03T12:29:02.691Z,23.60
2022-09-03T12:30:02.814Z,23.60
2022-09-03T12:31:02.874Z,23.60
2022-09-03T12:32:02.879Z,23.50
2022-09-03T12:33:02.814Z,23.50
2022-09-03T12:34:02.979Z,23.50
2022-09-03T12:35:03.066Z,23.50
2022-09-03T12:36:03.077Z,23.50
2022-09-03T12:37:03.130Z,23.50
2022-09-03T12:38:06.208Z,23.40
2022-09-03T12:39:12.551Z,23.40
2022-09-03T12:40:06.268Z,23.40
2022-09-03T12:41:27.592Z,23.40
2022-09-03T12:42:03.492Z,23.40
2022-09-03T12:44:02.613Z,23.40
2022-09-03T12:45:02.760Z,23.40
2022-09-03T12:46:10.796Z,23.40
2022-09-03T12:47:33.077Z,23.40
2022-09-03T12:48:03.124Z,23.40
2022-09-03T12:49:31.033Z,23.40
2022-09-03T12:50:03.276Z,23.40
2022-09-03T12:51:47.418Z,23.40
2022-09-03T12:52:05.704Z,23.40
2022-09-03T12:53:02.886Z,23.40